Home Latest Filings Latest Buys Latest Sells Institutions Derivatives Hot Buys Data Screener Email Alerts Insider Charts
DCO - As of  04/06/20, 07:37:30 AM:   486 Insider Transactions.

Sector: Industrial Goods    Industry: Aerospace/Defense Products & Services
Prev Close:$19.91  Avg Vol(3m): 39,575  P/E: 0.00  EPS: -5.21

Email this page to a friend.    Institutional Transactions for DCO

                Buy: Blue    Sell: Red
Non-meaningful transactions (gifts, grants, etc.) are automatically filtered out for quicker actions.
Buy(P) /
Sell(S)
P/S date Filed Date Company Symbol Insider Relationship Share Amt. Unit Price Total Proceeds Shares Owned Return(1m) Details
P 2020-03-20 2020-03-23 15:29:04.0 DUCOMMUN INC /DE/ DCO Wampler Christopher D. CFO 1,000 $21.27 $21,270.00 15,990 view
P 2020-03-19 2020-03-19 20:28:19.0 DUCOMMUN INC /DE/ DCO PAULSON ROBERT D director 2,500 $18.62 $46,550.00 53,867 view
P 2020-03-17 2020-03-19 16:49:40.0 DUCOMMUN INC /DE/ DCO Oswald Stephen G CEO 15,000 $21.10 $316,500.00 177,150 view
P 2020-03-16 2020-03-17 14:23:19.0 DUCOMMUN INC /DE/ DCO FLATT DEAN M director 1,000 $27.08 $27,080.00 27,700 view
P 2020-03-11 2020-03-13 12:58:16.0 DUCOMMUN INC /DE/ DCO Oswald Stephen G CEO 15,000 $33.93 $508,950.00 162,150 view
P 2020-02-27 2020-03-02 08:04:05.0 DUCOMMUN INC /DE/ DCO Oswald Stephen G CEO 10,000 $44.11 $441,100.00 147,150 view
P 2020-02-26 2020-02-27 16:58:40.0 DUCOMMUN INC /DE/ DCO Oswald Stephen G CEO 10,000 $44.50 $445,000.00 137,150 view
S 2019-09-19 2019-09-20 18:27:55.0 DUCOMMUN INC /DE/ DCO DUCOMMUN ROBERT C director 600 $46.62 $27,972.00 404,115 view
S 2019-09-17 2019-09-18 14:40:16.0 DUCOMMUN INC /DE/ DCO DUCOMMUN ROBERT C director 1,000 $46.50 $46,500.00 404,715 view
S 2019-08-19 2019-08-19 20:36:56.0 DUCOMMUN INC /DE/ DCO Rogers Rose F officer (VP & Chief HR Officer) 2,300 $42.75 $98,325.00 24,918 view
S 2019-06-27 2019-06-27 19:35:06.0 DUCOMMUN INC /DE/ DCO DUCOMMUN ROBERT C director 2,000 $45.29 $90,580.00 405,715 view
S 2019-05-30 2019-05-31 15:33:01.0 DUCOMMUN INC /DE/ DCO Wampler Christopher D. officer (VP, Controller and CAO) 3,000 $45.98 $137,940.00 6,679 view
S 2019-03-21 2019-03-25 14:43:03.0 DUCOMMUN INC /DE/ DCO DUCOMMUN ROBERT C director 685 $45.60 $31,236.00 405,315 view
S 2018-12-11 2018-12-12 16:29:58.0 DUCOMMUN INC /DE/ DCO Wampler Christopher D. officer (VP, Controller and CAO) 530 $38.54 $20,426.20 6,610 view
S 2018-12-03 2018-12-06 11:32:20.0 DUCOMMUN INC /DE/ DCO DUCOMMUN ROBERT C director 415 $40.29 $16,720.30 406,585 view
S 2018-11-13 2018-11-14 11:38:46.0 DUCOMMUN INC /DE/ DCO DUCOMMUN ROBERT C director 4,800 $43.19 $207,312.00 407,000 view
S 2018-11-12 2018-11-14 11:38:46.0 DUCOMMUN INC /DE/ DCO DUCOMMUN ROBERT C director 200 $42.65 $8,530.00 411,800 view
S 2018-09-06 2018-09-06 17:42:20.0 DUCOMMUN INC /DE/ DCO DUCOMMUN ROBERT C director 1,745 $40.89 $71,353.00 412,000 view
S 2018-09-05 2018-09-06 17:42:20.0 DUCOMMUN INC /DE/ DCO DUCOMMUN ROBERT C director 3,255 $40.69 $132,446.00 413,745 view
S 2018-06-08 2018-06-12 18:17:03.0 DUCOMMUN INC /DE/ DCO Wampler Christopher D. officer (VP, Controller and CAO) 1,550 $34.80 $53,940.00 7,140 view
S 2018-05-29 2018-05-31 15:00:07.0 DUCOMMUN INC /DE/ DCO Rogers Rose F officer (VP & Chief HR Officer) 2,700 $34.32 $92,664.00 18,510 view
S 2018-05-25 2018-05-30 17:20:11.0 DUCOMMUN INC /DE/ DCO Rogers Rose F officer (VP & Chief HR Officer) 2,700 $34.16 $92,232.00 21,210 view
S 2018-05-24 2018-05-29 17:05:59.0 DUCOMMUN INC /DE/ DCO Rogers Rose F officer (VP & Chief HR Officer) 2,700 $33.09 $89,343.00 23,910 view
S 2018-05-23 2018-05-25 13:30:39.0 DUCOMMUN INC /DE/ DCO Rogers Rose F officer (VP & Chief HR Officer) 2,700 $33.10 $89,370.00 26,610 view
S 2018-05-22 2018-05-24 16:42:05.0 DUCOMMUN INC /DE/ DCO Rogers Rose F officer (VP & Chief HR Officer) 2,700 $34.14 $92,178.00 29,310 view
S 2018-03-13 2018-03-15 16:56:04.0 DUCOMMUN INC /DE/ DCO REARDON ANTHONY J director 20,000 $30.83 $616,600.00 42,052 view
S 2017-11-21 2017-11-22 14:58:33.0 DUCOMMUN INC /DE/ DCO Wampler Christopher D. officer (VP, Controller and CAO) 750 $27.72 $20,790.00 6,671 view
S 2017-11-14 2017-11-15 17:47:01.0 DUCOMMUN INC /DE/ DCO REARDON ANTHONY J director 20,551 $26.05 $535,354.00 62,052 view
S 2017-11-13 2017-11-15 17:47:01.0 DUCOMMUN INC /DE/ DCO REARDON ANTHONY J director 9,449 $26.03 $245,957.00 82,603 view
P 2017-11-13 2017-11-15 16:55:01.0 DUCOMMUN INC /DE/ DCO Oswald Stephen G CEO 10,000 $26.30 $263,000.00 75,700 view
P 2017-11-06 2017-11-07 18:57:37.0 DUCOMMUN INC /DE/ DCO Oswald Stephen G CEO 10,000 $27.39 $273,900.00 65,700 view
S 2017-09-14 2017-09-26 18:01:03.0 DUCOMMUN INC /DE/ DCO REARDON ANTHONY J director 1,000 $28.91 $28,910.00 90,524 view
S 2017-09-22 2017-09-26 15:19:02.0 DUCOMMUN INC /DE/ DCO REARDON ANTHONY J director 1,031 $30.87 $31,827.00 91,524 view
S 2017-09-22 2017-09-26 15:19:02.0 DUCOMMUN INC /DE/ DCO REARDON ANTHONY J director 3,167 $31.08 $98,430.40 92,555 view
S 2017-09-21 2017-09-21 19:14:13.0 DUCOMMUN INC /DE/ DCO REARDON ANTHONY J director 2,637 $30.45 $80,296.60 95,722 view
S 2017-09-20 2017-09-21 19:14:13.0 DUCOMMUN INC /DE/ DCO REARDON ANTHONY J director 3,511 $30.17 $105,927.00 98,359 view
S 2017-09-19 2017-09-21 19:14:13.0 DUCOMMUN INC /DE/ DCO REARDON ANTHONY J director 1,676 $30.27 $50,732.50 101,870 view
S 2017-09-19 2017-09-21 19:14:13.0 DUCOMMUN INC /DE/ DCO REARDON ANTHONY J director 4,084 $29.78 $121,622.00 103,546 view
S 2017-09-18 2017-09-18 19:38:15.0 DUCOMMUN INC /DE/ DCO REARDON ANTHONY J director 2,987 $29.38 $87,758.10 107,630 view
S 2017-09-15 2017-09-18 19:38:15.0 DUCOMMUN INC /DE/ DCO REARDON ANTHONY J director 4,815 $28.96 $139,442.00 110,617 view
S 2017-09-14 2017-09-18 19:38:15.0 DUCOMMUN INC /DE/ DCO REARDON ANTHONY J director 2,070 $28.59 $59,181.30 115,432 view
S 2017-09-05 2017-09-05 16:57:40.0 DUCOMMUN INC /DE/ DCO REARDON ANTHONY J director 100 $27.77 $2,777.00 117,502 view
S 2017-09-01 2017-09-05 16:57:40.0 DUCOMMUN INC /DE/ DCO REARDON ANTHONY J director 1,896 $27.64 $52,405.40 117,602 view
S 2017-08-31 2017-09-01 20:37:59.0 DUCOMMUN INC /DE/ DCO REARDON ANTHONY J director 4,025 $27.64 $111,251.00 119,498 view
S 2017-08-30 2017-09-01 20:37:59.0 DUCOMMUN INC /DE/ DCO REARDON ANTHONY J director 3,701 $27.68 $102,444.00 123,523 view
S 2017-08-31 2017-09-01 15:10:29.0 DUCOMMUN INC /DE/ DCO REARDON ANTHONY J director 4,025 $27.64 $111,251.00 119,498 view
S 2017-08-30 2017-09-01 15:10:29.0 DUCOMMUN INC /DE/ DCO REARDON ANTHONY J director 3,701 $27.68 $102,444.00 123,523 view
S 2017-06-30 2017-07-05 17:56:22.0 DUCOMMUN INC /DE/ DCO DUCOMMUN ROBERT C director 4,900 $32.01 $156,866.00 416,300 view
P 2017-06-29 2017-06-29 18:52:23.0 DUCOMMUN INC /DE/ DCO Oswald Stephen G CEO 10,000 $28.56 $285,600.00 55,700 view
S 2017-06-26 2017-06-28 18:24:12.0 DUCOMMUN INC /DE/ DCO DUCOMMUN ROBERT C director 100 $32.31 $3,231.00 421,200 view
S 2017-06-26 2017-06-27 17:37:48.0 DUCOMMUN INC /DE/ DCO Rogers Rose F officer (VP & Chief HR Officer) 1,000 $32.18 $32,180.00 26,157 view
S 2017-06-20 2017-06-21 18:57:33.0 DUCOMMUN INC /DE/ DCO DUCOMMUN ROBERT C director 300 $33.02 $9,906.00 421,300 view
S 2017-06-19 2017-06-21 18:57:33.0 DUCOMMUN INC /DE/ DCO DUCOMMUN ROBERT C director 600 $33.00 $19,800.00 421,600 view
S 2017-06-01 2017-06-01 19:40:01.0 DUCOMMUN INC /DE/ DCO Wampler Christopher D. officer (VP, Controller and CAO) 1,500 $32.01 $48,015.00 7,421 view
S 2017-03-17 2017-04-05 13:01:53.0 DUCOMMUN INC /DE/ DCO BERENATO JOSEPH C director 2,700 $30.02 $81,054.00 17,548 N/A view
P 2017-03-31 2017-04-04 15:26:38.0 DUCOMMUN INC /DE/ DCO Oswald Stephen G CEO 7,000 $29.03 $203,210.00 45,700 N/A view
S 2017-03-30 2017-03-31 18:36:17.0 DUCOMMUN INC /DE/ DCO HEISER JAMES S officer (VP & General Counsel) 3,771 $28.60 $107,851.00 6,674 N/A view
S 2017-03-29 2017-03-31 18:36:17.0 DUCOMMUN INC /DE/ DCO HEISER JAMES S officer (VP & General Counsel) 2,379 $28.58 $67,991.80 10,445 N/A view
S 2016-11-23 2017-03-31 18:34:50.0 DUCOMMUN INC /DE/ DCO BERENATO JOSEPH C director 3,850 $28.18 $108,493.00 3,100 N/A view
S 2016-11-29 2017-03-31 18:34:50.0 DUCOMMUN INC /DE/ DCO BERENATO JOSEPH C director 4,360 $29.00 $126,440.00 20,248 N/A view
S 2017-03-27 2017-03-29 13:47:06.0 DUCOMMUN INC /DE/ DCO HEISER JAMES S officer (VP & General Counsel) 423 $27.80 $11,759.40 12,824 N/A view
P 2017-03-24 2017-03-28 13:12:18.0 DUCOMMUN INC /DE/ DCO Oswald Stephen G CEO 3,500 $27.90 $97,650.00 38,700 N/A view
P 2017-03-24 2017-03-28 13:12:18.0 DUCOMMUN INC /DE/ DCO Oswald Stephen G CEO 3,500 $27.97 $97,895.00 35,200 N/A view
P 2017-03-22 2017-03-22 21:28:55.0 DUCOMMUN INC /DE/ DCO Oswald Stephen G CEO 7,000 $26.73 $187,110.00 31,700 N/A view
P 2017-03-21 2017-03-22 21:28:55.0 DUCOMMUN INC /DE/ DCO Oswald Stephen G CEO 3,700 $27.89 $103,193.00 24,700 N/A view
S 2017-03-17 2017-03-20 14:05:19.0 DUCOMMUN INC /DE/ DCO HEISER JAMES S officer (VP & General Counsel) 628 $29.49 $18,519.70 12,264 N/A view
S 2017-03-16 2017-03-20 14:05:19.0 DUCOMMUN INC /DE/ DCO HEISER JAMES S officer (VP & General Counsel) 1,230 $28.90 $35,547.00 12,892 N/A view
S 2016-12-16 2016-12-20 16:18:30.0 DUCOMMUN INC /DE/ DCO HEISER JAMES S officer (VP & General Counsel) 365 $26.28 $9,592.20 13,045 N/A view
S 2016-11-30 2016-12-01 18:24:08.0 DUCOMMUN INC /DE/ DCO HEISER JAMES S officer (VP & General Counsel) 1,350 $29.24 $39,474.00 13,410 N/A view
S 2016-11-17 2016-11-21 16:51:21.0 DUCOMMUN INC /DE/ DCO BERENATO JOSEPH C director 1,790 $25.34 $45,358.60 19,594 N/A view
S 2016-11-16 2016-11-18 12:20:24.0 DUCOMMUN INC /DE/ DCO HEISER JAMES S officer (VP & General Counsel) 1,455 $25.83 $37,582.60 14,395 N/A view
S 2016-11-09 2016-11-09 17:09:53.0 DUCOMMUN INC /DE/ DCO HEISER JAMES S officer (VP & General Counsel) 696 $23.05 $16,042.80 15,154 N/A view
S 2016-11-08 2016-11-09 17:09:53.0 DUCOMMUN INC /DE/ DCO HEISER JAMES S officer (VP & General Counsel) 1,316 $22.82 $30,031.10 15,850 N/A view
S 2016-09-06 2016-09-07 19:34:47.0 DUCOMMUN INC /DE/ DCO Rogers Rose F officer (VP & Chief HR Officer) 5,000 $24.29 $121,450.00 20,089 N/A view
S 2016-08-19 2016-08-23 14:46:54.0 DUCOMMUN INC /DE/ DCO Wampler Christopher D. officer (VP, Controller and CAO) 1,100 $22.43 $24,673.00 5,864 N/A view
S 2016-08-17 2016-08-19 13:02:17.0 DUCOMMUN INC /DE/ DCO HEISER JAMES S officer (VP & General Counsel) 962 $22.42 $21,568.00 15,154 N/A view
S 2016-06-14 2016-06-16 15:23:03.0 DUCOMMUN INC /DE/ DCO BERENATO JOSEPH C director 12,000 $19.29 $231,480.00 9,384 N/A view
S 2016-06-13 2016-06-14 18:59:05.0 DUCOMMUN INC /DE/ DCO HEISER JAMES S officer (VP & General Counsel) 600 $19.25 $11,550.00 0 N/A view
S 2016-06-14 2016-06-14 18:59:05.0 DUCOMMUN INC /DE/ DCO HEISER JAMES S officer (VP & General Counsel) 1,729 $19.35 $33,456.10 16,116 N/A view
S 2016-03-31 2016-03-31 17:29:17.0 DUCOMMUN INC /DE/ DCO BERENATO JOSEPH C director 5,000 $15.43 $77,150.00 17,584 N/A view
S 2016-03-30 2016-03-31 17:29:17.0 DUCOMMUN INC /DE/ DCO BERENATO JOSEPH C director 6,400 $16.39 $104,896.00 22,584 N/A view
S 2016-03-29 2016-03-31 17:29:17.0 DUCOMMUN INC /DE/ DCO BERENATO JOSEPH C director 3,600 $16.13 $58,068.00 28,984 N/A view
S 2015-12-29 2015-12-30 15:59:02.0 DUCOMMUN INC /DE/ DCO BERENATO JOSEPH C director 10,000 $16.28 $162,800.00 32,584 N/A view
P 2015-12-07 2015-12-09 11:29:03.0 DUCOMMUN INC /DE/ DCO Groves Douglas L officer (VP & Controller) 2,500 $16.12 $40,300.00 13,305 N/A view
P 2015-11-16 2015-11-17 15:14:04.0 DUCOMMUN INC /DE/ DCO REARDON ANTHONY J CEO 3,000 $16.28 $48,840.00 119,422 N/A view
S 2015-07-02 2015-07-06 14:14:03.0 DUCOMMUN INC /DE/ DCO HEISER JAMES S officer (VP and General Counsel) 8,860 $26.00 $230,360.00 13,882 N/A view
S 2014-06-27 2014-06-27 15:59:03.0 DUCOMMUN INC /DE/ DCO BERENATO JOSEPH C director 1,000 $25.37 $25,370.00 15,793 8.40% view
S 2014-05-05 2014-05-06 15:02:51.0 DUCOMMUN INC /DE/ DCO Rogers Rose F officer (VP, Human Resources) 200 $24.79 $4,958.00 9,841 -4.60% view
S 2014-05-05 2014-05-06 15:02:51.0 DUCOMMUN INC /DE/ DCO Rogers Rose F officer (VP, Human Resources) 17 $24.77 $421.09 10,041 -4.68% view
S 2014-05-01 2014-05-02 12:38:34.0 DUCOMMUN INC /DE/ DCO BERENATO JOSEPH C director 4,442 $23.50 $104,387.00 16,793 -8.04% view
S 2013-12-06 2013-12-09 19:47:06.0 DUCOMMUN INC /DE/ DCO BELLINO JOSEPH P officer (VP & CFO) 6,000 $26.46 $158,786.00 14,154 -7.96% view
S 2013-11-14 2013-11-14 16:37:20.0 DUCOMMUN INC /DE/ DCO HEISER JAMES S officer (VP and General Counsel) 864 $25.20 $21,772.80 14,716 -2.30% view
S 2013-11-12 2013-11-14 16:37:20.0 DUCOMMUN INC /DE/ DCO HEISER JAMES S officer (VP and General Counsel) 1,205 $25.17 $30,329.80 15,580 0.24% view
S 2013-11-08 2013-11-08 19:19:49.0 DUCOMMUN INC /DE/ DCO BERENATO JOSEPH C director 2,000 $25.20 $50,400.00 46,533 -3.37% view
S 2013-11-04 2013-11-04 18:45:54.0 DUCOMMUN INC /DE/ DCO BERENATO JOSEPH C director 2,000 $25.40 $50,800.80 48,533 -3.74% view
S 2013-11-04 2013-11-04 18:45:54.0 DUCOMMUN INC /DE/ DCO BERENATO JOSEPH C director 3,000 $25.25 $75,750.00 50,533 -4.36% view
S 2013-10-31 2013-11-04 18:45:54.0 DUCOMMUN INC /DE/ DCO BERENATO JOSEPH C director 3,000 $25.00 $75,000.00 53,533 -1.36% view
S 2013-09-12 2013-09-18 13:04:38.0 DUCOMMUN INC /DE/ DCO Andrus Kathryn M officer (VP, Internal Audit) 1,000 $28.60 $28,600.90 1,500 -4.86% view
S 2013-09-09 2013-09-18 13:04:38.0 DUCOMMUN INC /DE/ DCO Andrus Kathryn M officer (VP, Internal Audit) 9,250 $26.89 $248,763.00 1,500 -1.18% view
S 2013-08-28 2013-09-03 19:14:24.0 DUCOMMUN INC /DE/ DCO DUCOMMUN ROBERT C director 448 $27.51 $12,324.50 412,900 -0.25% view
S 2013-08-29 2013-09-03 14:20:06.0 DUCOMMUN INC /DE/ DCO DUCOMMUN ROBERT C director 252 $27.12 $6,835.20 413,348 -1.68% view
S 2013-08-26 2013-08-27 17:59:33.0 DUCOMMUN INC /DE/ DCO DUCOMMUN ROBERT C director 1,800 $28.03 $50,458.10 413,600 3.79% view
S 2013-08-23 2013-08-27 17:59:33.0 DUCOMMUN INC /DE/ DCO DUCOMMUN ROBERT C director 2,500 $27.36 $68,409.80 415,400 1.59% view
S 2013-08-09 2013-08-13 18:46:46.0 DUCOMMUN INC /DE/ DCO DUCOMMUN ROBERT C director 500 $26.99 $13,496.60 800 0.75% view
S 2013-08-13 2013-08-13 18:46:46.0 DUCOMMUN INC /DE/ DCO DUCOMMUN ROBERT C director 818 $27.58 $22,557.20 417,900 0.67% view
S 2013-08-12 2013-08-13 18:46:46.0 DUCOMMUN INC /DE/ DCO DUCOMMUN ROBERT C director 1,934 $27.17 $52,552.60 418,718 -5.07% view
S 2013-08-12 2013-08-13 18:46:46.0 DUCOMMUN INC /DE/ DCO DUCOMMUN ROBERT C director 2,248 $27.20 $61,136.60 420,652 -4.98% view
S 2013-06-20 2013-06-24 19:07:34.0 DUCOMMUN INC /DE/ DCO BERENATO JOSEPH C director 8,000 $21.00 $168,000.00 54,544 -15.24% view
P 2012-06-21 2012-06-22 16:43:57.0 DUCOMMUN INC /DE/ DCO BERENATO JOSEPH C director 6,000 $7.95 $47,700.00 24,750 28.93% view
P 2012-06-22 2012-06-22 16:18:55.0 DUCOMMUN INC /DE/ DCO REARDON ANTHONY J CEO 6,000 $7.95 $47,706.00 60,580 28.91% view
P 2012-05-10 2012-05-10 19:14:13.0 DUCOMMUN INC /DE/ DCO PAULSON ROBERT D director 10,000 $9.48 $94,800.00 32,567 -11.29% view
P 2012-05-10 2012-05-10 16:40:58.0 DUCOMMUN INC /DE/ DCO BERENATO JOSEPH C director 5,000 $9.32 $46,600.00 18,750 -9.76% view
P 2012-04-02 2012-04-03 17:01:21.0 DUCOMMUN INC /DE/ DCO REARDON ANTHONY J CEO 2,000 $12.20 $24,400.00 64,418 -7.13% view
P 2011-11-10 2011-11-10 20:00:57.0 DUCOMMUN INC /DE/ DCO REARDON ANTHONY J CEO 2,000 $12.20 $24,400.00 51,100 10.33% view
S 2010-06-25 2010-06-28 18:20:56.0 DUCOMMUN INC /DE/ DCO REARDON ANTHONY J director officer (President and CEO) 7,000 $18.50 $129,500.00 43,318 -7.14% view
S 2010-06-16 2010-06-23 19:06:46.0 DUCOMMUN INC /DE/ DCO REARDON ANTHONY J director officer (President and CEO) 8,000 $19.25 $154,000.00 43,318 14.29% view
S 2010-04-01 2010-04-01 17:54:48.0 DUCOMMUN INC /DE/ DCO CONESE EUGENE P JR director 2,650 $21.36 $56,604.00 6,944 -7.16% view
S 2010-03-19 2010-03-22 18:25:48.0 DUCOMMUN INC /DE/ DCO CHRISTIE H FREDERICK director 4,500 $20.76 $93,420.00 0 -11.80% view
P 2009-02-27 2009-12-29 19:04:00.0 DUCOMMUN INC /DE/ DCO BERENATO JOSEPH C CEO 2,000 $12.98 $25,960.00 11,750 13.48% view
S 2009-09-28 2009-09-29 17:17:48.0 DUCOMMUN INC /DE/ DCO BERENATO JOSEPH C director officer (COB and CEO) 9,600 $19.42 $186,395.00 59,250 12.44% view
S 2009-09-25 2009-09-29 17:17:48.0 DUCOMMUN INC /DE/ DCO BERENATO JOSEPH C director officer (COB and CEO) 400 $19.52 $7,810.00 68,850 4.58% view
S 2009-09-14 2009-09-16 17:40:03.0 DUCOMMUN INC /DE/ DCO BERENATO JOSEPH C director officer (COB and CEO) 10,000 $18.52 $185,193.00 69,250 -6.70% view
S 2009-09-08 2009-09-10 17:07:11.0 DUCOMMUN INC /DE/ DCO BERENATO JOSEPH C director officer (COB and CEO) 10,000 $18.14 $181,400.00 79,250 -5.51% view
P 2009-02-26 2009-03-04 12:04:18.0 DUCOMMUN INC /DE/ DCO DUCOMMUN ROBERT C director 1,000 $12.25 $12,250.00 405,000 29.22% view
P 2009-02-26 2009-03-02 16:36:08.0 DUCOMMUN INC /DE/ DCO DUCOMMUN ROBERT C director 1,000 $12.25 $12,250.00 405,000 29.22% view
P 2009-02-27 2009-03-02 16:33:22.0 DUCOMMUN INC /DE/ DCO REARDON ANTHONY J COO 1,986 $12.88 $25,579.70 37,000 14.36% view
P 2009-02-27 2009-03-02 16:32:32.0 DUCOMMUN INC /DE/ DCO BERENATO JOSEPH C CEO 2,000 $12.98 $25,960.00 91,250 13.48% view
P 2008-06-13 2008-06-16 13:51:49.0 DUCOMMUN INC /DE/ DCO DUCOMMUN ROBERT C director 300 $24.75 $7,425.00 1,300 3.52% view
P 2008-06-13 2008-06-16 13:51:49.0 DUCOMMUN INC /DE/ DCO DUCOMMUN ROBERT C director 500 $24.75 $12,375.00 1,250 3.52% view
P 2008-06-13 2008-06-16 13:51:49.0 DUCOMMUN INC /DE/ DCO DUCOMMUN ROBERT C director 300 $24.77 $7,431.00 2,500 3.43% view
P 2008-06-13 2008-06-16 13:51:49.0 DUCOMMUN INC /DE/ DCO DUCOMMUN ROBERT C director 300 $24.75 $7,425.00 2,200 3.52% view
P 2008-06-12 2008-06-16 13:51:49.0 DUCOMMUN INC /DE/ DCO DUCOMMUN ROBERT C director 1,500 $25.00 $37,500.00 3,500 2.48% view
P 2008-05-21 2008-05-23 12:45:30.0 DUCOMMUN INC /DE/ DCO DUCOMMUN ROBERT C director 2,000 $30.60 $61,200.00 2,000 -19.35% view
S 2008-05-01 2008-05-06 17:29:33.0 DUCOMMUN INC /DE/ DCO MULLANEY THOMAS P director 200 $31.50 $6,300.00 1,500 -0.54% view
S 2008-05-01 2008-05-06 17:29:33.0 DUCOMMUN INC /DE/ DCO MULLANEY THOMAS P director 300 $31.67 $9,501.00 1,700 0.00% view
S 2008-05-01 2008-05-06 17:29:33.0 DUCOMMUN INC /DE/ DCO MULLANEY THOMAS P director 400 $31.68 $12,672.00 2,000 0.03% view
S 2008-05-01 2008-05-06 17:29:33.0 DUCOMMUN INC /DE/ DCO MULLANEY THOMAS P director 100 $31.70 $3,170.00 2,400 0.09% view
S 2008-05-01 2008-05-06 17:29:33.0 DUCOMMUN INC /DE/ DCO MULLANEY THOMAS P director 200 $31.73 $6,346.00 2,500 0.19% view
S 2008-05-01 2008-05-06 17:29:33.0 DUCOMMUN INC /DE/ DCO MULLANEY THOMAS P director 600 $31.74 $19,044.00 2,700 0.22% view
S 2008-05-01 2008-05-06 17:29:33.0 DUCOMMUN INC /DE/ DCO MULLANEY THOMAS P director 700 $31.81 $22,267.00 3,300 0.44% view
S 2008-05-01 2008-05-06 17:29:33.0 DUCOMMUN INC /DE/ DCO MULLANEY THOMAS P director 200 $31.84 $6,368.00 4,000 0.53% view
S 2008-05-01 2008-05-06 17:29:33.0 DUCOMMUN INC /DE/ DCO MULLANEY THOMAS P director 200 $31.92 $6,384.00 4,200 0.78% view
S 2008-05-01 2008-05-06 17:29:33.0 DUCOMMUN INC /DE/ DCO MULLANEY THOMAS P director 100 $31.94 $3,194.00 4,400 N/A view
S 2008-03-24 2008-03-25 16:05:39.0 DUCOMMUN INC /DE/ DCO Walsh John James officer (Executive Vice President) 400 $27.84 $11,136.00 35,000 -3.63% view
S 2008-03-24 2008-03-25 16:05:39.0 DUCOMMUN INC /DE/ DCO Walsh John James officer (Executive Vice President) 500 $27.91 $13,955.00 35,400 -3.37% view
S 2008-03-24 2008-03-25 16:05:39.0 DUCOMMUN INC /DE/ DCO Walsh John James officer (Executive Vice President) 300 $27.94 $8,382.00 35,900 -3.26% view
S 2008-03-24 2008-03-25 16:05:39.0 DUCOMMUN INC /DE/ DCO Walsh John James officer (Executive Vice President) 200 $27.97 $5,594.00 36,200 -3.15% view
S 2008-03-24 2008-03-25 16:05:39.0 DUCOMMUN INC /DE/ DCO Walsh John James officer (Executive Vice President) 200 $27.99 $5,598.00 36,400 -3.07% view
S 2008-03-24 2008-03-25 16:05:39.0 DUCOMMUN INC /DE/ DCO Walsh John James officer (Executive Vice President) 900 $28.00 $25,200.00 36,600 -3.04% view
S 2008-03-03 2008-03-04 14:40:21.0 DUCOMMUN INC /DE/ DCO CHRISTIE H FREDERICK director 228 $26.70 $6,087.60 11,159 -7.94% view
S 2008-03-03 2008-03-04 14:40:21.0 DUCOMMUN INC /DE/ DCO CHRISTIE H FREDERICK director 600 $26.71 $16,026.00 11,387 -7.90% view
S 2008-03-03 2008-03-04 14:40:21.0 DUCOMMUN INC /DE/ DCO CHRISTIE H FREDERICK director 100 $26.73 $2,673.00 11,987 -7.82% view
S 2008-03-03 2008-03-04 14:40:21.0 DUCOMMUN INC /DE/ DCO CHRISTIE H FREDERICK director 100 $26.81 $2,681.00 12,087 -7.50% view
S 2008-03-03 2008-03-04 14:40:21.0 DUCOMMUN INC /DE/ DCO CHRISTIE H FREDERICK director 700 $26.82 $18,774.00 12,187 -7.46% view
S 2008-03-03 2008-03-04 14:40:21.0 DUCOMMUN INC /DE/ DCO CHRISTIE H FREDERICK director 146 $26.83 $3,917.18 12,887 -7.42% view
S 2008-03-03 2008-03-04 14:40:21.0 DUCOMMUN INC /DE/ DCO CHRISTIE H FREDERICK director 500 $26.87 $13,435.00 13,033 -7.26% view
S 2008-03-03 2008-03-04 14:40:21.0 DUCOMMUN INC /DE/ DCO CHRISTIE H FREDERICK director 100 $26.88 $2,688.00 13,533 -7.22% view
S 2008-03-03 2008-03-04 14:40:21.0 DUCOMMUN INC /DE/ DCO CHRISTIE H FREDERICK director 226 $26.91 $6,081.66 13,633 -7.10% view
S 2008-03-03 2008-03-04 14:40:21.0 DUCOMMUN INC /DE/ DCO CHRISTIE H FREDERICK director 300 $26.94 $8,082.00 13,859 -6.98% view
S 2007-12-07 2007-12-10 18:32:18.0 DUCOMMUN INC /DE/ DCO Walsh John James other 1,800 $37.25 $67,050.00 35,000 6.87% view
S 2007-12-07 2007-12-10 18:32:18.0 DUCOMMUN INC /DE/ DCO Walsh John James other 300 $37.26 $11,178.00 36,800 6.90% view
S 2007-12-07 2007-12-10 18:32:18.0 DUCOMMUN INC /DE/ DCO Walsh John James other 1,800 $37.28 $67,104.00 37,100 6.95% view
S 2007-12-07 2007-12-10 18:32:18.0 DUCOMMUN INC /DE/ DCO Walsh John James other 500 $37.29 $18,645.00 38,900 6.97% view
S 2007-12-07 2007-12-10 18:32:18.0 DUCOMMUN INC /DE/ DCO Walsh John James other 200 $37.30 $7,460.00 39,400 7.00% view
S 2007-12-07 2007-12-10 18:32:18.0 DUCOMMUN INC /DE/ DCO Walsh John James other 900 $37.31 $33,579.00 39,600 7.02% view
S 2007-12-07 2007-12-10 18:32:18.0 DUCOMMUN INC /DE/ DCO Walsh John James other 200 $37.32 $7,464.00 40,500 7.05% view
S 2007-12-07 2007-12-10 18:32:18.0 DUCOMMUN INC /DE/ DCO Walsh John James other 100 $37.33 $3,733.00 40,700 7.07% view
S 2007-12-07 2007-12-10 18:32:18.0 DUCOMMUN INC /DE/ DCO Walsh John James other 200 $37.34 $7,468.00 40,800 7.10% view
S 2007-11-14 2007-11-29 13:39:26.0 DUCOMMUN INC /DE/ DCO Walsh John James other 1,000 $41.85 $41,850.00 35,000 11.54% view
S 2007-11-14 2007-11-29 13:39:26.0 DUCOMMUN INC /DE/ DCO Walsh John James other 300 $41.87 $12,561.00 36,000 11.58% view
S 2007-11-14 2007-11-29 13:39:26.0 DUCOMMUN INC /DE/ DCO Walsh John James other 300 $41.89 $12,567.00 36,300 11.63% view
S 2007-11-14 2007-11-29 13:39:26.0 DUCOMMUN INC /DE/ DCO Walsh John James other 100 $41.94 $4,194.00 36,600 11.73% view
S 2007-11-14 2007-11-29 13:39:26.0 DUCOMMUN INC /DE/ DCO Walsh John James other 100 $41.95 $4,195.00 36,700 11.75% view
S 2007-11-14 2007-11-29 13:39:26.0 DUCOMMUN INC /DE/ DCO Walsh John James other 300 $41.96 $12,588.00 36,800 11.77% view
S 2007-11-14 2007-11-29 13:39:26.0 DUCOMMUN INC /DE/ DCO Walsh John James other 400 $41.99 $16,796.30 37,100 11.84% view
S 2007-11-14 2007-11-29 13:39:26.0 DUCOMMUN INC /DE/ DCO Walsh John James other 200 $42.00 $8,400.00 37,500 11.86% view
S 2007-11-14 2007-11-29 13:39:26.0 DUCOMMUN INC /DE/ DCO Walsh John James other 600 $42.03 $25,215.10 37,700 11.91% view
S 2007-11-14 2007-11-29 13:39:26.0 DUCOMMUN INC /DE/ DCO Walsh John James other 400 $42.05 $16,819.60 38,300 11.96% view
S 2007-11-14 2007-11-29 13:39:26.0 DUCOMMUN INC /DE/ DCO Walsh John James other 300 $42.10 $12,629.50 38,700 12.06% view
S 2007-11-14 2007-11-29 13:39:26.0 DUCOMMUN INC /DE/ DCO Walsh John James other 100 $42.13 $4,213.00 39,000 12.13% view
S 2007-11-14 2007-11-29 13:39:26.0 DUCOMMUN INC /DE/ DCO Walsh John James other 500 $42.15 $21,075.00 39,100 12.17% view
S 2007-11-14 2007-11-29 13:39:26.0 DUCOMMUN INC /DE/ DCO Walsh John James other 300 $42.16 $12,648.00 39,600 12.19% view
S 2007-11-14 2007-11-29 13:39:26.0 DUCOMMUN INC /DE/ DCO Walsh John James other 200 $42.18 $8,436.88 39,900 12.24% view
S 2007-11-14 2007-11-29 13:39:26.0 DUCOMMUN INC /DE/ DCO Walsh John James other 100 $42.20 $4,220.00 40,100 12.27% view
S 2007-11-14 2007-11-29 13:39:26.0 DUCOMMUN INC /DE/ DCO Walsh John James other 600 $42.21 $25,326.00 40,200 12.30% view
S 2007-11-14 2007-11-29 13:39:26.0 DUCOMMUN INC /DE/ DCO Walsh John James other 600 $42.22 $25,332.00 40,800 12.32% view
S 2007-11-14 2007-11-29 13:39:26.0 DUCOMMUN INC /DE/ DCO Walsh John James other 400 $42.23 $16,893.00 41,400 12.34% view
S 2007-11-14 2007-11-29 13:39:26.0 DUCOMMUN INC /DE/ DCO Walsh John James other 1,329 $42.24 $56,137.00 41,800 12.36% view
S 2007-11-14 2007-11-29 13:39:26.0 DUCOMMUN INC /DE/ DCO Walsh John James other 300 $42.25 $12,675.00 43,129 12.38% view
S 2007-11-14 2007-11-29 13:39:26.0 DUCOMMUN INC /DE/ DCO Walsh John James other 400 $42.25 $16,901.30 43,429 12.39% view
S 2007-11-14 2007-11-29 13:39:26.0 DUCOMMUN INC /DE/ DCO Walsh John James other 121 $42.27 $5,114.67 43,829 12.42% view
S 2007-11-14 2007-11-29 13:39:26.0 DUCOMMUN INC /DE/ DCO Walsh John James other 200 $42.34 $8,467.92 43,950 12.56% view
S 2007-11-14 2007-11-29 13:39:26.0 DUCOMMUN INC /DE/ DCO Walsh John James other 500 $42.34 $21,170.00 44,150 12.56% view
S 2007-11-14 2007-11-29 13:39:26.0 DUCOMMUN INC /DE/ DCO Walsh John James other 1,300 $42.46 $55,198.00 44,650 12.81% view
S 2007-11-14 2007-11-29 13:39:26.0 DUCOMMUN INC /DE/ DCO Walsh John James other 200 $42.48 $8,496.00 45,950 12.85% view
S 2007-11-14 2007-11-29 13:39:26.0 DUCOMMUN INC /DE/ DCO Walsh John James other 100 $42.50 $4,250.00 46,150 12.89% view
S 2007-11-15 2007-11-26 13:50:00.0 DUCOMMUN INC /DE/ DCO BERENATO JOSEPH C director officer (COB, CEO and President) 1,250 $40.63 $50,787.50 12,450 8.89% view
S 2007-11-09 2007-11-13 16:05:59.0 DUCOMMUN INC /DE/ DCO CONESE EUGENE P JR director 350 $39.28 $13,748.00 3,594 4.74% view
S 2007-11-09 2007-11-13 16:05:59.0 DUCOMMUN INC /DE/ DCO CONESE EUGENE P JR director 200 $39.00 $7,800.00 3,944 4.05% view
S 2007-11-09 2007-11-13 16:05:59.0 DUCOMMUN INC /DE/ DCO CONESE EUGENE P JR director 300 $38.92 $11,676.00 4,144 3.85% view
S 2007-11-09 2007-11-13 16:05:59.0 DUCOMMUN INC /DE/ DCO CONESE EUGENE P JR director 100 $38.91 $3,891.00 4,444 3.83% view
S 2007-11-09 2007-11-13 16:05:59.0 DUCOMMUN INC /DE/ DCO CONESE EUGENE P JR director 700 $38.90 $27,230.00 4,544 3.80% view
S 2007-11-09 2007-11-13 16:05:59.0 DUCOMMUN INC /DE/ DCO CONESE EUGENE P JR director 100 $38.89 $3,889.00 5,244 3.78% view
S 2007-11-09 2007-11-13 16:05:59.0 DUCOMMUN INC /DE/ DCO CONESE EUGENE P JR director 200 $38.88 $7,776.00 5,344 3.76% view
S 2007-11-09 2007-11-13 16:05:59.0 DUCOMMUN INC /DE/ DCO CONESE EUGENE P JR director 100 $38.87 $3,887.00 5,544 3.73% view
S 2007-11-09 2007-11-13 16:05:59.0 DUCOMMUN INC /DE/ DCO CONESE EUGENE P JR director 200 $38.85 $7,770.00 5,644 3.68% view
S 2007-11-09 2007-11-13 16:05:59.0 DUCOMMUN INC /DE/ DCO CONESE EUGENE P JR director 200 $38.77 $7,754.00 5,844 3.48% view
S 2007-11-09 2007-11-13 16:05:59.0 DUCOMMUN INC /DE/ DCO CONESE EUGENE P JR director 200 $38.67 $7,734.00 6,044 3.23% view
S 2007-11-09 2007-11-13 16:05:59.0 DUCOMMUN INC /DE/ DCO CONESE EUGENE P JR director 200 $38.50 $7,700.00 6,244 2.81% view
S 2007-11-08 2007-11-13 16:05:59.0 DUCOMMUN INC /DE/ DCO CONESE EUGENE P JR director 300 $38.94 $11,682.00 6,444 3.90% view
S 2007-11-08 2007-11-13 16:05:59.0 DUCOMMUN INC /DE/ DCO CONESE EUGENE P JR director 100 $38.25 $3,825.00 6,744 2.17% view
S 2007-11-09 2007-11-13 16:05:06.0 DUCOMMUN INC /DE/ DCO REARDON ANTHONY J other 3,200 $38.75 $124,000.00 35,014 3.43% view
S 2007-11-09 2007-11-13 16:05:06.0 DUCOMMUN INC /DE/ DCO REARDON ANTHONY J other 100 $38.75 $3,875.03 38,214 3.43% view
S 2007-11-09 2007-11-13 16:05:06.0 DUCOMMUN INC /DE/ DCO REARDON ANTHONY J other 1,000 $38.76 $38,760.00 38,314 3.46% view
S 2007-11-09 2007-11-13 16:05:06.0 DUCOMMUN INC /DE/ DCO REARDON ANTHONY J other 1,000 $38.77 $38,770.00 39,314 3.48% view
S 2007-11-09 2007-11-13 16:05:06.0 DUCOMMUN INC /DE/ DCO REARDON ANTHONY J other 100 $38.78 $3,878.00 40,314 3.51% view
S 2007-11-09 2007-11-13 16:05:06.0 DUCOMMUN INC /DE/ DCO REARDON ANTHONY J other 100 $38.79 $3,879.15 40,414 3.54% view
S 2007-11-09 2007-11-13 16:05:06.0 DUCOMMUN INC /DE/ DCO REARDON ANTHONY J other 600 $38.83 $23,298.00 40,514 3.63% view
S 2007-11-09 2007-11-13 16:05:06.0 DUCOMMUN INC /DE/ DCO REARDON ANTHONY J other 100 $38.87 $3,887.00 41,114 3.73% view
S 2007-11-09 2007-11-13 16:05:06.0 DUCOMMUN INC /DE/ DCO REARDON ANTHONY J other 1,200 $38.98 $46,776.00 41,214 4.00% view
S 2007-11-09 2007-11-13 16:05:06.0 DUCOMMUN INC /DE/ DCO REARDON ANTHONY J other 600 $38.99 $23,394.00 42,414 4.03% view
S 2007-10-31 2007-11-02 17:48:32.0 DUCOMMUN INC /DE/ DCO HEISER JAMES S officer (VP and General Counsel) 100 $40.17 $4,017.00 0 8.49% view
S 2007-10-31 2007-11-02 17:48:32.0 DUCOMMUN INC /DE/ DCO HEISER JAMES S officer (VP and General Counsel) 819 $40.16 $32,891.00 100 8.47% view
S 2007-10-31 2007-11-02 17:48:32.0 DUCOMMUN INC /DE/ DCO HEISER JAMES S officer (VP and General Counsel) 100 $40.15 $4,015.00 919 8.44% view
S 2007-10-31 2007-11-02 17:48:32.0 DUCOMMUN INC /DE/ DCO HEISER JAMES S officer (VP and General Counsel) 200 $40.11 $8,022.00 1,019 8.35% view
S 2007-10-31 2007-11-02 17:48:32.0 DUCOMMUN INC /DE/ DCO HEISER JAMES S officer (VP and General Counsel) 300 $40.10 $12,030.00 1,219 8.33% view
S 2007-10-31 2007-11-02 17:48:32.0 DUCOMMUN INC /DE/ DCO HEISER JAMES S officer (VP and General Counsel) 100 $40.09 $4,009.00 1,519 8.31% view
S 2007-10-31 2007-11-02 17:48:32.0 DUCOMMUN INC /DE/ DCO HEISER JAMES S officer (VP and General Counsel) 100 $40.05 $4,005.00 1,619 8.21% view
S 2007-10-31 2007-11-02 17:48:32.0 DUCOMMUN INC /DE/ DCO HEISER JAMES S officer (VP and General Counsel) 200 $40.04 $8,008.00 1,719 8.19% view
S 2007-10-31 2007-11-02 17:48:32.0 DUCOMMUN INC /DE/ DCO HEISER JAMES S officer (VP and General Counsel) 200 $40.03 $8,006.00 1,919 8.17% view
S 2007-10-31 2007-11-02 17:48:32.0 DUCOMMUN INC /DE/ DCO HEISER JAMES S officer (VP and General Counsel) 100 $39.99 $3,999.00 2,119 8.08% view
S 2007-10-31 2007-11-02 17:48:32.0 DUCOMMUN INC /DE/ DCO HEISER JAMES S officer (VP and General Counsel) 300 $39.94 $11,982.00 2,219 7.96% view
S 2007-10-31 2007-11-02 17:48:32.0 DUCOMMUN INC /DE/ DCO HEISER JAMES S officer (VP and General Counsel) 200 $39.90 $7,980.00 2,519 7.87% view
S 2007-10-31 2007-11-02 17:48:32.0 DUCOMMUN INC /DE/ DCO HEISER JAMES S officer (VP and General Counsel) 114 $39.84 $4,541.76 2,719 7.73% view
S 2007-10-31 2007-11-02 17:48:32.0 DUCOMMUN INC /DE/ DCO HEISER JAMES S officer (VP and General Counsel) 3,986 $39.80 $158,643.00 2,833 7.64% view
S 2007-10-31 2007-11-02 17:46:40.0 DUCOMMUN INC /DE/ DCO BERENATO JOSEPH C officer (COB, CEO and President) 400 $38.75 $15,500.00 45,526 5.14% view
S 2007-10-31 2007-11-02 17:46:40.0 DUCOMMUN INC /DE/ DCO BERENATO JOSEPH C officer (COB, CEO and President) 100 $38.71 $3,871.00 45,926 5.04% view
S 2007-10-31 2007-11-02 17:46:40.0 DUCOMMUN INC /DE/ DCO BERENATO JOSEPH C officer (COB, CEO and President) 100 $38.58 $3,858.00 46,026 4.72% view
S 2007-10-31 2007-11-02 17:46:40.0 DUCOMMUN INC /DE/ DCO BERENATO JOSEPH C officer (COB, CEO and President) 100 $38.51 $3,851.00 46,126 4.54% view
S 2007-10-31 2007-11-02 17:46:40.0 DUCOMMUN INC /DE/ DCO BERENATO JOSEPH C officer (COB, CEO and President) 600 $38.50 $23,100.00 46,226 4.52% view
S 2007-10-31 2007-11-02 17:46:40.0 DUCOMMUN INC /DE/ DCO BERENATO JOSEPH C officer (COB, CEO and President) 300 $38.42 $11,526.00 46,826 4.32% view
S 2007-10-31 2007-11-02 17:46:40.0 DUCOMMUN INC /DE/ DCO BERENATO JOSEPH C officer (COB, CEO and President) 100 $38.41 $3,841.00 47,126 4.30% view
S 2007-10-31 2007-11-02 17:46:40.0 DUCOMMUN INC /DE/ DCO BERENATO JOSEPH C officer (COB, CEO and President) 100 $38.40 $3,840.00 47,226 4.27% view
S 2007-10-31 2007-11-02 17:46:40.0 DUCOMMUN INC /DE/ DCO BERENATO JOSEPH C officer (COB, CEO and President) 100 $38.35 $3,835.00 47,326 4.15% view
S 2007-10-31 2007-11-02 17:46:40.0 DUCOMMUN INC /DE/ DCO BERENATO JOSEPH C officer (COB, CEO and President) 100 $38.28 $3,828.00 47,426 3.97% view
S 2007-10-31 2007-11-02 17:46:40.0 DUCOMMUN INC /DE/ DCO BERENATO JOSEPH C officer (COB, CEO and President) 4,000 $38.23 $152,920.00 47,526 3.85% view
S 2007-10-31 2007-11-02 17:46:40.0 DUCOMMUN INC /DE/ DCO BERENATO JOSEPH C officer (COB, CEO and President) 100 $38.22 $3,822.00 51,526 3.82% view
S 2007-10-31 2007-11-02 17:46:40.0 DUCOMMUN INC /DE/ DCO BERENATO JOSEPH C officer (COB, CEO and President) 800 $38.18 $30,544.00 51,626 3.72% view
S 2007-10-31 2007-11-02 17:46:39.0 DUCOMMUN INC /DE/ DCO BERENATO JOSEPH C officer (COB, CEO and President) 100 $38.15 $3,815.00 52,426 3.64% view
S 2007-10-31 2007-11-02 15:01:00.0 DUCOMMUN INC /DE/ DCO Hann Gregory A officer (VP, CFO, Treasurer) 391 $38.57 $15,080.90 0 4.69% view
S 2007-10-31 2007-11-02 15:01:00.0 DUCOMMUN INC /DE/ DCO Hann Gregory A officer (VP, CFO, Treasurer) 200 $38.59 $7,718.00 391 4.74% view
S 2007-10-31 2007-11-02 15:01:00.0 DUCOMMUN INC /DE/ DCO Hann Gregory A officer (VP, CFO, Treasurer) 200 $38.60 $7,720.00 591 4.77% view
S 2007-10-31 2007-11-02 15:01:00.0 DUCOMMUN INC /DE/ DCO Hann Gregory A officer (VP, CFO, Treasurer) 100 $38.79 $3,879.00 791 5.23% view
S 2007-10-31 2007-11-02 15:01:00.0 DUCOMMUN INC /DE/ DCO Hann Gregory A officer (VP, CFO, Treasurer) 9 $38.82 $349.38 891 5.31% view
S 2007-10-31 2007-11-02 15:01:00.0 DUCOMMUN INC /DE/ DCO Hann Gregory A officer (VP, CFO, Treasurer) 600 $38.83 $23,298.00 900 5.33% view
S 2007-10-31 2007-11-02 15:01:00.0 DUCOMMUN INC /DE/ DCO Hann Gregory A officer (VP, CFO, Treasurer) 500 $38.92 $19,460.00 1,500 5.55% view
S 2007-10-31 2007-11-02 15:01:00.0 DUCOMMUN INC /DE/ DCO Hann Gregory A officer (VP, CFO, Treasurer) 100 $38.98 $3,898.00 2,000 5.70% view
S 2007-10-31 2007-11-02 15:01:00.0 DUCOMMUN INC /DE/ DCO Hann Gregory A officer (VP, CFO, Treasurer) 100 $39.01 $3,901.00 2,100 5.77% view
S 2007-10-31 2007-11-02 15:01:00.0 DUCOMMUN INC /DE/ DCO Hann Gregory A officer (VP, CFO, Treasurer) 100 $39.13 $3,913.00 2,200 6.06% view
S 2007-10-31 2007-11-02 15:01:00.0 DUCOMMUN INC /DE/ DCO Hann Gregory A officer (VP, CFO, Treasurer) 300 $39.18 $11,754.00 2,300 6.18% view
S 2007-10-31 2007-11-02 15:01:00.0 DUCOMMUN INC /DE/ DCO Hann Gregory A officer (VP, CFO, Treasurer) 400 $39.25 $15,700.00 2,600 6.34% view
S 2007-10-31 2007-11-02 15:01:00.0 DUCOMMUN INC /DE/ DCO Hann Gregory A officer (VP, CFO, Treasurer) 200 $39.43 $7,886.00 3,000 6.77% view
S 2007-10-31 2007-11-02 15:01:00.0 DUCOMMUN INC /DE/ DCO Hann Gregory A officer (VP, CFO, Treasurer) 300 $39.44 $11,832.00 3,200 6.80% view
S 2007-10-31 2007-11-02 15:01:00.0 DUCOMMUN INC /DE/ DCO Hann Gregory A officer (VP, CFO, Treasurer) 500 $39.51 $19,755.00 3,500 6.96% view
S 2007-10-31 2007-11-02 15:01:00.0 DUCOMMUN INC /DE/ DCO Hann Gregory A officer (VP, CFO, Treasurer) 200 $39.63 $7,926.00 4,000 7.24% view
S 2007-10-31 2007-11-02 15:01:00.0 DUCOMMUN INC /DE/ DCO Hann Gregory A officer (VP, CFO, Treasurer) 300 $39.64 $11,892.00 4,200 7.27% view
S 2007-10-31 2007-11-02 15:01:00.0 DUCOMMUN INC /DE/ DCO Hann Gregory A officer (VP, CFO, Treasurer) 100 $39.80 $3,980.00 4,500 7.64% view
S 2007-10-31 2007-11-02 15:01:00.0 DUCOMMUN INC /DE/ DCO Hann Gregory A officer (VP, CFO, Treasurer) 300 $39.92 $11,976.00 4,600 7.92% view
S 2007-10-31 2007-11-02 15:01:00.0 DUCOMMUN INC /DE/ DCO Hann Gregory A officer (VP, CFO, Treasurer) 100 $39.93 $3,993.00 4,900 7.94% view
S 2007-09-21 2007-09-21 19:44:27.0 DUCOMMUN INC /DE/ DCO Parkinson Gary officer (Vice President, Human Resource) 700 $31.00 $21,700.00 0 -8.26% view
S 2007-09-20 2007-09-21 19:44:27.0 DUCOMMUN INC /DE/ DCO Parkinson Gary officer (Vice President, Human Resource) 3,050 $31.00 $94,550.00 0 -8.26% view
S 2007-09-20 2007-09-21 18:58:39.0 DUCOMMUN INC /DE/ DCO REARDON ANTHONY J other 8,500 $30.00 $255,000.00 35,014 -11.87% view
S 2007-09-19 2007-09-21 18:58:39.0 DUCOMMUN INC /DE/ DCO REARDON ANTHONY J other 500 $30.00 $15,000.00 35,014 -11.87% view
S 2007-09-06 2007-09-10 13:08:41.0 DUCOMMUN INC /DE/ DCO HEISER JAMES S officer (VP and General Counsel) 200 $30.25 $6,051.00 6,819 -10.73% view
S 2007-09-06 2007-09-10 13:08:41.0 DUCOMMUN INC /DE/ DCO HEISER JAMES S officer (VP and General Counsel) 231 $30.24 $6,985.44 7,019 -10.78% view
S 2007-09-04 2007-09-05 18:58:13.0 DUCOMMUN INC /DE/ DCO REARDON ANTHONY J other 7,100 $29.27 $207,817.00 35,014 -13.70% view
S 2007-08-31 2007-09-05 18:58:13.0 DUCOMMUN INC /DE/ DCO REARDON ANTHONY J other 100 $29.08 $2,908.00 35,014 -11.07% view
S 2007-08-31 2007-09-05 18:58:13.0 DUCOMMUN INC /DE/ DCO REARDON ANTHONY J other 100 $29.07 $2,907.00 35,114 -11.11% view
S 2007-08-31 2007-09-05 18:58:13.0 DUCOMMUN INC /DE/ DCO REARDON ANTHONY J other 400 $29.03 $11,612.00 35,214 -11.26% view
S 2007-08-31 2007-09-05 18:58:13.0 DUCOMMUN INC /DE/ DCO REARDON ANTHONY J other 100 $29.02 $2,902.00 35,614 -11.30% view
S 2007-08-31 2007-09-05 18:58:13.0 DUCOMMUN INC /DE/ DCO REARDON ANTHONY J other 4,200 $29.00 $121,800.00 35,714 -11.38% view
S 2007-08-29 2007-08-30 15:08:45.0 DUCOMMUN INC /DE/ DCO BERENATO JOSEPH C director officer (COB, CEO and President) 800 $29.25 $23,400.00 13,700 -10.43% view
S 2007-08-29 2007-08-30 15:08:45.0 DUCOMMUN INC /DE/ DCO BERENATO JOSEPH C director officer (COB, CEO and President) 200 $29.21 $5,842.00 14,500 -10.58% view
S 2007-08-23 2007-08-27 16:10:26.0 DUCOMMUN INC /DE/ DCO HEISER JAMES S officer (VP and General Counsel) 700 $28.45 $19,915.00 6,819 -9.17% view
S 2007-08-23 2007-08-27 16:10:26.0 DUCOMMUN INC /DE/ DCO HEISER JAMES S officer (VP and General Counsel) 200 $28.49 $5,698.00 7,519 -9.02% view
S 2007-08-23 2007-08-27 16:10:26.0 DUCOMMUN INC /DE/ DCO HEISER JAMES S officer (VP and General Counsel) 300 $28.51 $8,553.00 7,719 -8.94% view
S 2007-08-23 2007-08-27 16:10:26.0 DUCOMMUN INC /DE/ DCO HEISER JAMES S officer (VP and General Counsel) 100 $28.84 $2,884.00 8,019 -7.70% view
S 2007-08-23 2007-08-27 16:10:26.0 DUCOMMUN INC /DE/ DCO HEISER JAMES S officer (VP and General Counsel) 100 $28.86 $2,886.00 8,119 -7.62% view
S 2007-08-23 2007-08-27 16:10:26.0 DUCOMMUN INC /DE/ DCO HEISER JAMES S officer (VP and General Counsel) 1,000 $28.90 $28,900.00 8,219 -7.47% view
S 2007-08-23 2007-08-27 16:10:26.0 DUCOMMUN INC /DE/ DCO HEISER JAMES S officer (VP and General Counsel) 100 $28.92 $2,892.00 9,219 -7.40% view
S 2007-08-23 2007-08-27 16:10:26.0 DUCOMMUN INC /DE/ DCO HEISER JAMES S officer (VP and General Counsel) 100 $28.94 $2,894.00 9,319 -7.33% view
S 2007-08-23 2007-08-27 16:10:26.0 DUCOMMUN INC /DE/ DCO HEISER JAMES S officer (VP and General Counsel) 200 $28.98 $5,796.00 9,419 -7.18% view
S 2007-08-23 2007-08-27 16:10:26.0 DUCOMMUN INC /DE/ DCO HEISER JAMES S officer (VP and General Counsel) 200 $28.99 $5,798.00 9,619 -7.14% view
S 2007-08-23 2007-08-27 16:10:26.0 DUCOMMUN INC /DE/ DCO HEISER JAMES S officer (VP and General Counsel) 200 $29.00 $5,800.00 9,819 -7.10% view
S 2007-08-23 2007-08-27 16:10:26.0 DUCOMMUN INC /DE/ DCO HEISER JAMES S officer (VP and General Counsel) 100 $29.01 $2,901.00 10,019 -7.07% view
S 2007-08-23 2007-08-27 16:10:26.0 DUCOMMUN INC /DE/ DCO HEISER JAMES S officer (VP and General Counsel) 100 $29.03 $2,903.00 10,119 -6.99% view
S 2007-08-23 2007-08-27 16:10:26.0 DUCOMMUN INC /DE/ DCO HEISER JAMES S officer (VP and General Counsel) 100 $29.04 $2,904.00 10,219 -6.96% view
S 2007-08-23 2007-08-27 16:10:26.0 DUCOMMUN INC /DE/ DCO HEISER JAMES S officer (VP and General Counsel) 500 $29.05 $14,525.00 10,319 -6.92% view
S 2007-08-22 2007-08-23 20:30:55.0 DUCOMMUN INC /DE/ DCO HEISER JAMES S officer (VP and General Counsel) 2,600 $28.80 $74,880.00 6,819 -7.85% view
S 2007-08-22 2007-08-23 20:30:55.0 DUCOMMUN INC /DE/ DCO HEISER JAMES S officer (VP and General Counsel) 100 $28.81 $2,881.00 9,419 -7.81% view
S 2007-08-22 2007-08-23 20:30:55.0 DUCOMMUN INC /DE/ DCO HEISER JAMES S officer (VP and General Counsel) 100 $28.82 $2,882.00 9,519 -7.77% view
S 2007-08-22 2007-08-23 20:30:55.0 DUCOMMUN INC /DE/ DCO HEISER JAMES S officer (VP and General Counsel) 700 $28.83 $20,181.00 9,619 -7.73% view
S 2007-08-22 2007-08-23 20:30:55.0 DUCOMMUN INC /DE/ DCO HEISER JAMES S officer (VP and General Counsel) 200 $28.84 $5,768.00 10,319 -7.70% view
S 2007-08-22 2007-08-23 20:30:55.0 DUCOMMUN INC /DE/ DCO HEISER JAMES S officer (VP and General Counsel) 100 $28.85 $2,885.00 10,519 -7.66% view
S 2007-08-22 2007-08-23 20:30:55.0 DUCOMMUN INC /DE/ DCO HEISER JAMES S officer (VP and General Counsel) 200 $28.87 $5,774.00 10,619 -7.59% view
S 2007-08-22 2007-08-23 20:30:55.0 DUCOMMUN INC /DE/ DCO HEISER JAMES S officer (VP and General Counsel) 100 $28.89 $2,889.00 10,819 -7.51% view
S 2007-08-22 2007-08-23 20:30:55.0 DUCOMMUN INC /DE/ DCO HEISER JAMES S officer (VP and General Counsel) 1,700 $28.90 $49,130.00 10,919 -7.47% view
S 2007-08-21 2007-08-23 20:30:55.0 DUCOMMUN INC /DE/ DCO HEISER JAMES S officer (VP and General Counsel) 900 $28.80 $25,920.00 6,819 -7.85% view
S 2007-08-21 2007-08-23 20:30:55.0 DUCOMMUN INC /DE/ DCO HEISER JAMES S officer (VP and General Counsel) 200 $28.83 $5,766.00 7,719 -7.73% view
S 2007-08-21 2007-08-23 20:30:55.0 DUCOMMUN INC /DE/ DCO HEISER JAMES S officer (VP and General Counsel) 400 $28.84 $11,536.00 7,919 -7.70% view
S 2007-08-21 2007-08-23 20:30:55.0 DUCOMMUN INC /DE/ DCO HEISER JAMES S officer (VP and General Counsel) 600 $28.87 $17,322.00 8,319 -7.59% view
S 2007-08-21 2007-08-23 20:30:55.0 DUCOMMUN INC /DE/ DCO HEISER JAMES S officer (VP and General Counsel) 700 $28.97 $20,279.00 8,919 -7.21% view
S 2007-08-21 2007-08-23 20:30:55.0 DUCOMMUN INC /DE/ DCO HEISER JAMES S officer (VP and General Counsel) 100 $28.99 $2,899.00 9,619 -7.14% view
S 2007-08-21 2007-08-23 20:30:55.0 DUCOMMUN INC /DE/ DCO HEISER JAMES S officer (VP and General Counsel) 100 $29.00 $2,900.00 9,719 -7.10% view
S 2007-05-07 2007-05-08 19:33:29.0 DUCOMMUN INC /DE/ DCO HEISER JAMES S officer (VP and General Counsel) 1,914 $28.35 $54,261.90 6,819 16.30% view
S 2007-05-02 2007-05-08 19:28:45.0 DUCOMMUN INC /DE/ DCO BERENATO JOSEPH C director officer (COB, CEO and President) 400 $28.80 $11,520.00 43,020 20.56% view
S 2007-05-02 2007-05-08 19:28:45.0 DUCOMMUN INC /DE/ DCO BERENATO JOSEPH C director officer (COB, CEO and President) 100 $28.80 $2,880.00 43,420 20.56% view
S 2007-05-02 2007-05-08 19:28:45.0 DUCOMMUN INC /DE/ DCO BERENATO JOSEPH C director officer (COB, CEO and President) 100 $28.68 $2,868.00 43,520 20.22% view
S 2007-05-02 2007-05-08 19:28:45.0 DUCOMMUN INC /DE/ DCO BERENATO JOSEPH C director officer (COB, CEO and President) 100 $28.42 $2,842.00 43,620 19.49% view
S 2007-05-02 2007-05-08 19:28:45.0 DUCOMMUN INC /DE/ DCO BERENATO JOSEPH C director officer (COB, CEO and President) 200 $28.36 $5,672.00 43,720 19.32% view
S 2007-05-02 2007-05-08 19:28:45.0 DUCOMMUN INC /DE/ DCO BERENATO JOSEPH C director officer (COB, CEO and President) 100 $28.41 $2,841.00 43,920 19.46% view
S 2007-05-02 2007-05-08 19:28:45.0 DUCOMMUN INC /DE/ DCO BERENATO JOSEPH C director officer (COB, CEO and President) 100 $28.34 $2,834.00 44,020 19.27% view
S 2007-05-02 2007-05-08 19:28:45.0 DUCOMMUN INC /DE/ DCO BERENATO JOSEPH C director officer (COB, CEO and President) 200 $28.11 $5,622.00 44,120 18.61% view
S 2007-05-02 2007-05-08 19:28:45.0 DUCOMMUN INC /DE/ DCO BERENATO JOSEPH C director officer (COB, CEO and President) 300 $28.16 $8,448.00 44,320 18.75% view
S 2007-05-02 2007-05-08 19:28:45.0 DUCOMMUN INC /DE/ DCO BERENATO JOSEPH C director officer (COB, CEO and President) 100 $28.23 $2,823.00 44,620 18.95% view
S 2007-05-02 2007-05-08 19:28:45.0 DUCOMMUN INC /DE/ DCO BERENATO JOSEPH C director officer (COB, CEO and President) 200 $28.26 $5,652.00 44,720 19.04% view
S 2007-05-02 2007-05-08 19:28:45.0 DUCOMMUN INC /DE/ DCO BERENATO JOSEPH C director officer (COB, CEO and President) 100 $28.24 $2,824.00 44,920 18.98% view
S 2007-05-02 2007-05-08 19:28:45.0 DUCOMMUN INC /DE/ DCO BERENATO JOSEPH C director officer (COB, CEO and President) 100 $28.27 $2,827.00 45,020 19.07% view
S 2007-05-02 2007-05-08 19:28:45.0 DUCOMMUN INC /DE/ DCO BERENATO JOSEPH C director officer (COB, CEO and President) 100 $28.31 $2,831.00 45,120 19.18% view
S 2007-05-02 2007-05-08 19:28:45.0 DUCOMMUN INC /DE/ DCO BERENATO JOSEPH C director officer (COB, CEO and President) 300 $28.40 $8,520.00 45,220 19.44% view
S 2007-05-02 2007-05-08 19:28:45.0 DUCOMMUN INC /DE/ DCO BERENATO JOSEPH C director officer (COB, CEO and President) 100 $28.45 $2,845.00 45,520 19.58% view
S 2007-05-02 2007-05-08 19:28:45.0 DUCOMMUN INC /DE/ DCO BERENATO JOSEPH C director officer (COB, CEO and President) 100 $28.47 $2,847.00 45,620 19.63% view
S 2007-05-02 2007-05-08 19:28:45.0 DUCOMMUN INC /DE/ DCO BERENATO JOSEPH C director officer (COB, CEO and President) 200 $28.48 $5,696.00 45,720 19.66% view
S 2007-05-02 2007-05-08 19:28:45.0 DUCOMMUN INC /DE/ DCO BERENATO JOSEPH C director officer (COB, CEO and President) 100 $28.32 $2,832.00 45,920 19.21% view
S 2007-05-02 2007-05-08 19:28:45.0 DUCOMMUN INC /DE/ DCO BERENATO JOSEPH C director officer (COB, CEO and President) 100 $28.37 $2,837.00 46,020 19.35% view
S 2007-05-02 2007-05-08 19:28:45.0 DUCOMMUN INC /DE/ DCO BERENATO JOSEPH C director officer (COB, CEO and President) 200 $28.20 $5,640.00 46,120 18.87% view
S 2007-05-02 2007-05-08 19:28:45.0 DUCOMMUN INC /DE/ DCO BERENATO JOSEPH C director officer (COB, CEO and President) 100 $28.19 $2,819.00 46,320 18.84% view
S 2007-05-02 2007-05-08 19:28:45.0 DUCOMMUN INC /DE/ DCO BERENATO JOSEPH C director officer (COB, CEO and President) 100 $28.13 $2,813.00 46,420 18.66% view
S 2007-05-02 2007-05-08 19:28:45.0 DUCOMMUN INC /DE/ DCO BERENATO JOSEPH C director officer (COB, CEO and President) 100 $28.12 $2,812.00 46,520 18.63% view
S 2007-05-02 2007-05-08 19:28:45.0 DUCOMMUN INC /DE/ DCO BERENATO JOSEPH C director officer (COB, CEO and President) 100 $28.03 $2,803.00 46,620 18.37% view
S 2007-05-02 2007-05-08 19:28:45.0 DUCOMMUN INC /DE/ DCO BERENATO JOSEPH C director officer (COB, CEO and President) 200 $28.07 $5,614.00 46,720 18.49% view
S 2007-05-02 2007-05-08 19:28:45.0 DUCOMMUN INC /DE/ DCO BERENATO JOSEPH C director officer (COB, CEO and President) 4,804 $28.00 $134,512.00 46,920 18.29% view
S 2007-05-03 2007-05-04 14:06:07.0 DUCOMMUN INC /DE/ DCO WILLIAMS SAMUEL D officer (VP & Controller) 4,800 $28.00 $134,400.00 750 18.29% view
S 2007-05-02 2007-05-04 14:06:07.0 DUCOMMUN INC /DE/ DCO WILLIAMS SAMUEL D officer (VP & Controller) 7,700 $28.13 $216,578.00 750 18.65% view
S 2007-05-03 2007-05-04 14:05:04.0 DUCOMMUN INC /DE/ DCO Parkinson Gary officer (VP, Human Resources) 2,500 $27.98 $69,950.00 0 18.23% view
S 2007-03-22 2007-03-23 12:42:06.0 DUCOMMUN INC /DE/ DCO MULLANEY THOMAS P director 1,100 $25.81 $28,391.00 1,500 -13.64% view
S 2007-03-22 2007-03-23 12:42:06.0 DUCOMMUN INC /DE/ DCO MULLANEY THOMAS P director 300 $25.83 $7,749.00 2,600 -13.55% view
S 2007-03-22 2007-03-23 12:42:06.0 DUCOMMUN INC /DE/ DCO MULLANEY THOMAS P director 100 $25.84 $2,584.00 2,900 -13.51% view
S 2007-03-22 2007-03-23 12:42:06.0 DUCOMMUN INC /DE/ DCO MULLANEY THOMAS P director 1,100 $25.86 $28,446.00 3,000 -13.42% view
S 2007-03-22 2007-03-23 12:42:06.0 DUCOMMUN INC /DE/ DCO MULLANEY THOMAS P director 100 $25.87 $2,587.00 4,100 -13.37% view
S 2007-03-22 2007-03-23 12:42:06.0 DUCOMMUN INC /DE/ DCO MULLANEY THOMAS P director 200 $25.88 $5,176.00 4,200 -13.33% view
S 2007-03-22 2007-03-23 12:42:06.0 DUCOMMUN INC /DE/ DCO MULLANEY THOMAS P director 100 $25.89 $2,589.00 4,400 -13.29% view
S 2007-03-05 2007-03-06 18:14:55.0 DUCOMMUN INC /DE/ DCO WILLIAMS SAMUEL D officer (VP & Controller) 5,000 $26.06 $130,276.00 750 4.05% view
S 2007-03-01 2007-03-02 14:49:17.0 DUCOMMUN INC /DE/ DCO BERENATO JOSEPH C director officer (COB, CEO and President) 500 $25.30 $12,650.00 43,955 -1.70% view
S 2007-03-01 2007-03-02 14:49:17.0 DUCOMMUN INC /DE/ DCO BERENATO JOSEPH C director officer (COB, CEO and President) 100 $25.28 $2,528.00 44,455 -1.78% view
S 2007-03-01 2007-03-02 14:49:17.0 DUCOMMUN INC /DE/ DCO BERENATO JOSEPH C director officer (COB, CEO and President) 274 $25.27 $6,923.98 44,555 -1.82% view
S 2007-03-01 2007-03-02 14:49:17.0 DUCOMMUN INC /DE/ DCO BERENATO JOSEPH C director officer (COB, CEO and President) 1,500 $25.26 $37,890.00 44,829 -1.86% view
S 2007-03-01 2007-03-02 14:49:17.0 DUCOMMUN INC /DE/ DCO BERENATO JOSEPH C director officer (COB, CEO and President) 1,800 $25.25 $45,450.00 46,329 -1.90% view
S 2007-03-01 2007-03-02 14:49:17.0 DUCOMMUN INC /DE/ DCO BERENATO JOSEPH C director officer (COB, CEO and President) 600 $25.20 $15,120.00 48,129 -2.10% view
S 2007-03-01 2007-03-02 14:49:17.0 DUCOMMUN INC /DE/ DCO BERENATO JOSEPH C director officer (COB, CEO and President) 500 $25.19 $12,595.00 48,729 -2.14% view
S 2007-03-01 2007-03-02 14:49:17.0 DUCOMMUN INC /DE/ DCO BERENATO JOSEPH C director officer (COB, CEO and President) 300 $25.18 $7,554.00 49,229 -2.18% view
S 2007-03-01 2007-03-02 14:49:17.0 DUCOMMUN INC /DE/ DCO BERENATO JOSEPH C director officer (COB, CEO and President) 700 $25.17 $17,619.00 49,529 -2.22% view
S 2007-03-01 2007-03-02 14:49:17.0 DUCOMMUN INC /DE/ DCO BERENATO JOSEPH C director officer (COB, CEO and President) 100 $25.11 $2,511.00 50,229 -2.47% view
S 2007-03-01 2007-03-02 14:49:17.0 DUCOMMUN INC /DE/ DCO BERENATO JOSEPH C director officer (COB, CEO and President) 1,100 $25.10 $27,610.00 50,329 -2.51% view
S 2007-03-01 2007-03-02 14:49:17.0 DUCOMMUN INC /DE/ DCO BERENATO JOSEPH C director officer (COB, CEO and President) 600 $25.06 $15,036.00 51,429 -2.67% view
S 2007-03-01 2007-03-02 14:49:17.0 DUCOMMUN INC /DE/ DCO BERENATO JOSEPH C director officer (COB, CEO and President) 500 $25.05 $12,525.00 52,029 -2.71% view
S 2007-03-01 2007-03-02 14:49:17.0 DUCOMMUN INC /DE/ DCO BERENATO JOSEPH C director officer (COB, CEO and President) 100 $25.03 $2,503.00 52,529 -2.80% view
S 2006-12-19 2006-12-21 16:25:33.0 DUCOMMUN INC /DE/ DCO WILLIAMS SAMUEL D officer (VP & Controller) 3,250 $22.50 $73,125.00 750 -0.84% view
S 2006-12-12 2006-12-12 19:39:01.0 DUCOMMUN INC /DE/ DCO HEISER JAMES S officer (VP and General Counsel) 1,121 $22.55 $25,278.60 6,819 1.11% view
S 2006-11-16 2006-11-17 18:26:07.0 DUCOMMUN INC /DE/ DCO WILLIAMS SAMUEL D officer (VP & Controller) 7,500 $22.06 $165,471.00 750 -3.16% view
S 2006-05-09 2006-05-11 15:03:08.0 DUCOMMUN INC /DE/ DCO CONESE EUGENE P JR director 150 $23.03 $3,454.50 6,250 19.89% view
S 2006-05-09 2006-05-11 15:03:08.0 DUCOMMUN INC /DE/ DCO CONESE EUGENE P JR director 100 $22.92 $2,292.00 6,400 19.50% view
S 2006-05-09 2006-05-11 15:03:08.0 DUCOMMUN INC /DE/ DCO CONESE EUGENE P JR director 300 $22.91 $6,873.00 6,500 19.47% view
S 2006-05-09 2006-05-11 15:03:08.0 DUCOMMUN INC /DE/ DCO CONESE EUGENE P JR director 100 $22.90 $2,290.00 6,800 19.43% view
S 2006-05-09 2006-05-11 15:03:08.0 DUCOMMUN INC /DE/ DCO CONESE EUGENE P JR director 150 $22.88 $3,432.00 6,900 19.36% view
S 2006-05-09 2006-05-11 15:03:08.0 DUCOMMUN INC /DE/ DCO CONESE EUGENE P JR director 950 $22.85 $21,707.50 7,050 19.26% view
S 2006-03-24 2006-03-24 16:58:02.0 DUCOMMUN INC /DE/ DCO DUCOMMUN ROBERT C director 20,000 $21.65 $433,028.00 400,000 -9.92% view
S 2006-03-23 2006-03-24 16:58:02.0 DUCOMMUN INC /DE/ DCO DUCOMMUN ROBERT C director 10,000 $21.10 $211,000.00 420,000 -13.74% view
S 2006-03-22 2006-03-24 16:58:02.0 DUCOMMUN INC /DE/ DCO DUCOMMUN ROBERT C director 4,900 $21.15 $103,658.00 430,000 -13.45% view
S 2006-03-21 2006-03-21 17:20:14.0 DUCOMMUN INC /DE/ DCO DUCOMMUN ROBERT C director 2,500 $21.30 $53,250.00 0 -12.68% view
S 2006-03-20 2006-03-21 17:20:14.0 DUCOMMUN INC /DE/ DCO DUCOMMUN ROBERT C director 10,000 $21.46 $214,595.00 431,900 -11.79% view
S 2006-03-20 2006-03-21 17:20:14.0 DUCOMMUN INC /DE/ DCO DUCOMMUN ROBERT C director 10,000 $21.15 $211,500.00 441,900 -13.43% view
S 2006-03-20 2006-03-21 17:20:14.0 DUCOMMUN INC /DE/ DCO DUCOMMUN ROBERT C director 10,000 $21.20 $212,000.00 451,900 -13.16% view
S 2006-03-16 2006-03-21 17:20:14.0 DUCOMMUN INC /DE/ DCO DUCOMMUN ROBERT C director 900 $21.15 $19,035.00 461,900 -12.39% view
S 2006-03-20 2006-03-21 13:02:50.0 DUCOMMUN INC /DE/ DCO MULLANEY THOMAS P director 1,100 $21.33 $23,463.00 1,500 -12.47% view
S 2006-03-20 2006-03-21 13:02:50.0 DUCOMMUN INC /DE/ DCO MULLANEY THOMAS P director 1,300 $21.39 $27,807.00 2,600 -12.16% view
S 2006-03-20 2006-03-21 13:02:50.0 DUCOMMUN INC /DE/ DCO MULLANEY THOMAS P director 600 $21.48 $12,888.00 3,900 -11.69% view
S 2006-03-16 2006-03-17 17:51:16.0 DUCOMMUN INC /DE/ DCO CHRISTIE H FREDERICK director 3,000 $21.02 $63,068.40 9,000 -13.07% view
S 2006-03-15 2006-03-15 17:40:35.0 DUCOMMUN INC /DE/ DCO DUCOMMUN ROBERT C director 10,000 $21.20 $211,995.00 462,800 -12.13% view
S 2006-03-13 2006-03-15 17:40:35.0 DUCOMMUN INC /DE/ DCO DUCOMMUN ROBERT C director 5,000 $21.00 $105,018.00 472,800 -13.17% view
S 2006-03-15 2006-03-15 17:34:26.0 DUCOMMUN INC /DE/ DCO HEISER JAMES S officer (VP, CFO & Gen. Cnsl.) 1,252 $21.19 $26,530.00 6,819 -12.18% view
S 2006-03-10 2006-03-13 20:12:50.0 DUCOMMUN INC /DE/ DCO DUCOMMUN ROBERT C director 2,450 $21.00 $51,450.00 477,800 -24.38% view
S 2006-03-09 2006-03-13 20:12:50.0 DUCOMMUN INC /DE/ DCO DUCOMMUN ROBERT C director 350 $21.10 $7,385.00 480,250 -8.10% view
S 2006-03-08 2006-03-08 20:04:26.0 DUCOMMUN INC /DE/ DCO DUCOMMUN ROBERT C director 50 $21.06 $1,053.00 480,600 -8.31% view
S 2006-03-08 2006-03-08 20:04:26.0 DUCOMMUN INC /DE/ DCO DUCOMMUN ROBERT C director 1,000 $21.07 $21,070.00 480,650 -8.26% view
S 2006-03-08 2006-03-08 20:04:26.0 DUCOMMUN INC /DE/ DCO DUCOMMUN ROBERT C director 5,000 $21.00 $105,000.00 481,650 -8.62% view
S 2006-03-07 2006-03-08 20:04:26.0 DUCOMMUN INC /DE/ DCO DUCOMMUN ROBERT C director 100 $21.10 $2,110.00 486,650 -8.10% view
S 2006-03-06 2006-03-08 20:04:26.0 DUCOMMUN INC /DE/ DCO DUCOMMUN ROBERT C director 350 $21.24 $7,434.00 486,750 -7.02% view
S 2006-03-06 2006-03-08 20:04:26.0 DUCOMMUN INC /DE/ DCO DUCOMMUN ROBERT C director 50 $21.13 $1,056.50 487,100 -7.57% view
S 2006-03-06 2006-03-08 20:04:26.0 DUCOMMUN INC /DE/ DCO DUCOMMUN ROBERT C director 100 $21.22 $2,122.00 487,150 -7.12% view
S 2006-03-06 2006-03-08 20:04:26.0 DUCOMMUN INC /DE/ DCO DUCOMMUN ROBERT C director 100 $21.20 $2,120.00 487,250 -7.22% view
S 2006-03-06 2006-03-08 20:04:26.0 DUCOMMUN INC /DE/ DCO DUCOMMUN ROBERT C director 4,650 $21.10 $98,115.00 487,350 -7.73% view
S 2006-03-06 2006-03-08 20:04:26.0 DUCOMMUN INC /DE/ DCO DUCOMMUN ROBERT C director 150 $21.01 $3,151.50 492,000 -8.19% view
S 2006-03-06 2006-03-08 20:04:26.0 DUCOMMUN INC /DE/ DCO DUCOMMUN ROBERT C director 2,350 $21.00 $49,350.00 492,150 -8.24% view
S 2006-03-03 2006-03-08 20:04:26.0 DUCOMMUN INC /DE/ DCO DUCOMMUN ROBERT C director 1,000 $20.90 $20,900.00 494,500 -9.09% view
S 2006-03-03 2006-03-08 20:04:26.0 DUCOMMUN INC /DE/ DCO DUCOMMUN ROBERT C director 200 $20.92 $4,184.00 495,500 -8.99% view
S 2006-03-03 2006-03-08 20:04:26.0 DUCOMMUN INC /DE/ DCO DUCOMMUN ROBERT C director 300 $20.86 $6,258.00 495,700 -9.30% view
S 2006-03-02 2006-03-08 20:04:26.0 DUCOMMUN INC /DE/ DCO DUCOMMUN ROBERT C director 100 $21.25 $2,125.00 496,000 -4.47% view
S 2006-03-02 2006-03-08 20:04:26.0 DUCOMMUN INC /DE/ DCO DUCOMMUN ROBERT C director 150 $21.22 $3,183.00 496,100 -4.62% view
S 2006-03-02 2006-03-08 20:04:26.0 DUCOMMUN INC /DE/ DCO DUCOMMUN ROBERT C director 50 $21.14 $1,057.00 496,250 -5.01% view
S 2006-03-02 2006-03-08 20:04:26.0 DUCOMMUN INC /DE/ DCO DUCOMMUN ROBERT C director 200 $21.12 $4,224.00 496,300 -5.11% view
S 2005-12-20 2006-01-04 13:55:15.0 DUCOMMUN INC /DE/ DCO CONESE EUGENE P JR director 900 $21.10 $18,990.00 5,000 -3.79% view
S 2005-12-20 2006-01-04 13:55:15.0 DUCOMMUN INC /DE/ DCO CONESE EUGENE P JR director 1,000 $21.15 $21,150.00 5,900 -3.55% view
S 2005-12-19 2006-01-04 13:55:15.0 DUCOMMUN INC /DE/ DCO CONESE EUGENE P JR director 1,000 $21.20 $21,200.00 6,900 -3.11% view
S 2005-12-15 2006-01-04 13:55:15.0 DUCOMMUN INC /DE/ DCO CONESE EUGENE P JR director 100 $21.60 $2,160.00 7,900 -1.53% view
S 2005-12-09 2005-12-13 17:46:09.0 DUCOMMUN INC /DE/ DCO REARDON ANTHONY J other 800 $21.21 $16,968.00 14 -1.79% view
S 2005-12-09 2005-12-13 17:46:09.0 DUCOMMUN INC /DE/ DCO REARDON ANTHONY J other 100 $21.33 $2,133.00 814 -1.22% view
S 2005-12-09 2005-12-13 17:46:09.0 DUCOMMUN INC /DE/ DCO REARDON ANTHONY J other 300 $21.36 $6,408.00 914 -1.08% view
S 2005-12-09 2005-12-13 17:46:09.0 DUCOMMUN INC /DE/ DCO REARDON ANTHONY J other 100 $21.40 $2,140.00 1,214 -0.89% view
S 2005-12-09 2005-12-13 17:46:09.0 DUCOMMUN INC /DE/ DCO REARDON ANTHONY J other 600 $21.41 $12,846.00 1,314 -0.84% view
S 2005-12-09 2005-12-13 17:46:09.0 DUCOMMUN INC /DE/ DCO REARDON ANTHONY J other 500 $21.42 $10,710.00 1,914 -0.79% view
S 2005-12-09 2005-12-13 17:46:09.0 DUCOMMUN INC /DE/ DCO REARDON ANTHONY J other 400 $21.43 $8,572.00 2,414 -0.75% view
S 2005-12-09 2005-12-13 17:46:09.0 DUCOMMUN INC /DE/ DCO REARDON ANTHONY J other 600 $21.44 $12,864.00 2,814 -0.70% view
S 2005-12-09 2005-12-13 17:46:09.0 DUCOMMUN INC /DE/ DCO REARDON ANTHONY J other 1,600 $21.45 $34,320.00 3,414 -0.65% view
S 2005-12-09 2005-12-13 17:22:15.0 DUCOMMUN INC /DE/ DCO WILLIAMS SAMUEL D officer (VP & Controller) 583 $21.33 $12,435.40 0 -1.22% view
S 2005-12-08 2005-12-12 14:39:53.0 DUCOMMUN INC /DE/ DCO HEISER JAMES S officer (VP, CFO & Gen. Cnsl.) 1,645 $21.45 $35,285.20 6,819 -0.47% view
S 2005-12-07 2005-12-07 17:54:33.0 DUCOMMUN INC /DE/ DCO WILLIAMS MICHAEL W officer (VP Corp Development) 1,500 $21.45 $32,175.00 1,193 -0.47% view
S 2005-12-07 2005-12-07 17:54:33.0 DUCOMMUN INC /DE/ DCO WILLIAMS MICHAEL W officer (VP Corp Development) 200 $21.46 $4,292.00 2,693 -0.42% view
S 2005-12-07 2005-12-07 17:54:33.0 DUCOMMUN INC /DE/ DCO WILLIAMS MICHAEL W officer (VP Corp Development) 300 $21.55 $6,465.00 2,893 -0.00% view
S 2005-12-07 2005-12-07 17:53:18.0 DUCOMMUN INC /DE/ DCO BERENATO JOSEPH C officer (COB and CEO) 15,000 $21.47 $322,106.00 38,756 -0.36% view
S 2005-12-06 2005-12-07 17:53:18.0 DUCOMMUN INC /DE/ DCO BERENATO JOSEPH C officer (COB and CEO) 5,000 $21.73 $108,633.00 53,756 0.81% view
S 2005-12-01 2005-12-05 18:11:24.0 DUCOMMUN INC /DE/ DCO BERENATO JOSEPH C officer (COB and CEO) 5,400 $20.50 $110,700.00 58,756 -4.20% view
S 2005-11-30 2005-12-01 19:41:59.0 DUCOMMUN INC /DE/ DCO BERENATO JOSEPH C officer (COB and CEO) 8,800 $20.50 $180,400.00 64,156 -4.20% view
S 2005-11-29 2005-12-01 19:41:59.0 DUCOMMUN INC /DE/ DCO BERENATO JOSEPH C officer (COB and CEO) 900 $20.60 $18,540.00 72,956 -3.40% view
S 2005-11-29 2005-12-01 19:41:59.0 DUCOMMUN INC /DE/ DCO BERENATO JOSEPH C officer (COB and CEO) 100 $20.65 $2,065.00 73,856 -3.15% view
S 2005-11-29 2005-12-01 19:41:59.0 DUCOMMUN INC /DE/ DCO BERENATO JOSEPH C officer (COB and CEO) 4,300 $20.72 $89,096.00 73,956 -2.80% view
S 2005-11-29 2005-12-01 19:41:59.0 DUCOMMUN INC /DE/ DCO BERENATO JOSEPH C officer (COB and CEO) 500 $20.77 $10,385.00 78,256 -2.55% view
S 2005-11-30 2005-11-30 18:54:26.0 DUCOMMUN INC /DE/ DCO REARDON ANTHONY J other 2,500 $20.50 $51,250.00 14 -4.20% view
S 2005-11-28 2005-11-30 18:54:26.0 DUCOMMUN INC /DE/ DCO REARDON ANTHONY J other 3,200 $20.56 $65,792.00 14 -3.36% view
S 2005-11-28 2005-11-30 18:54:26.0 DUCOMMUN INC /DE/ DCO REARDON ANTHONY J other 200 $20.57 $4,114.00 3,214 -3.31% view
S 2005-11-28 2005-11-30 18:54:26.0 DUCOMMUN INC /DE/ DCO REARDON ANTHONY J other 400 $20.59 $8,236.00 3,414 -3.21% view
S 2005-11-28 2005-11-30 18:54:26.0 DUCOMMUN INC /DE/ DCO REARDON ANTHONY J other 2,100 $20.65 $43,365.00 3,814 -2.91% view
S 2005-11-28 2005-11-30 18:54:26.0 DUCOMMUN INC /DE/ DCO REARDON ANTHONY J other 300 $20.66 $6,198.00 5,914 -2.86% view
S 2005-11-28 2005-11-30 18:54:26.0 DUCOMMUN INC /DE/ DCO REARDON ANTHONY J other 400 $20.71 $8,284.00 6,214 -2.61% view
S 2005-11-28 2005-11-30 18:54:26.0 DUCOMMUN INC /DE/ DCO REARDON ANTHONY J other 500 $20.75 $10,375.00 6,614 -2.41% view
S 2005-11-28 2005-11-30 18:54:26.0 DUCOMMUN INC /DE/ DCO REARDON ANTHONY J other 400 $20.86 $8,344.00 7,114 -1.87% view
P 2005-05-23 2005-05-23 17:17:41.0 DUCOMMUN INC /DE/ DCO DUCOMMUN ROBERT C director 500 $17.09 $8,545.00 2,500 -2.75% view
P 2005-05-20 2005-05-23 17:17:41.0 DUCOMMUN INC /DE/ DCO DUCOMMUN ROBERT C director 1,000 $17.30 $17,300.00 2,000 1.45% view
S 2005-03-22 2005-04-04 13:44:59.0 DUCOMMUN INC /DE/ DCO BERENATO JOSEPH C director 2,700 $20.00 $54,000.00 73,768 11.60% view
S 2005-03-22 2005-04-04 13:44:59.0 DUCOMMUN INC /DE/ DCO BERENATO JOSEPH C director 6,800 $20.09 $136,588.00 76,468 11.98% view
S 2005-03-22 2005-04-04 13:44:59.0 DUCOMMUN INC /DE/ DCO BERENATO JOSEPH C director 200 $20.00 $4,000.00 83,268 11.60% view
S 2005-03-21 2005-04-04 13:44:59.0 DUCOMMUN INC /DE/ DCO BERENATO JOSEPH C director 2,100 $20.15 $42,304.90 83,468 12.44% view
S 2005-03-30 2005-03-30 19:23:53.0 DUCOMMUN INC /DE/ DCO MULLANEY THOMAS P director 100 $19.84 $1,984.00 1,500 10.03% view
S 2005-03-30 2005-03-30 19:23:53.0 DUCOMMUN INC /DE/ DCO MULLANEY THOMAS P director 400 $19.75 $7,900.00 1,600 9.62% view
S 2005-03-30 2005-03-30 19:23:53.0 DUCOMMUN INC /DE/ DCO MULLANEY THOMAS P director 200 $19.74 $3,948.00 2,000 9.57% view
S 2005-03-30 2005-03-30 19:23:53.0 DUCOMMUN INC /DE/ DCO MULLANEY THOMAS P director 600 $19.70 $11,820.00 2,200 9.39% view
S 2005-03-30 2005-03-30 19:23:53.0 DUCOMMUN INC /DE/ DCO MULLANEY THOMAS P director 100 $19.69 $1,969.00 2,800 9.34% view
S 2005-03-30 2005-03-30 19:23:53.0 DUCOMMUN INC /DE/ DCO MULLANEY THOMAS P director 100 $19.64 $1,964.00 2,900 9.11% view
S 2005-03-30 2005-03-30 19:23:53.0 DUCOMMUN INC /DE/ DCO MULLANEY THOMAS P director 300 $19.60 $5,880.00 3,000 8.93% view
S 2005-03-30 2005-03-30 19:23:53.0 DUCOMMUN INC /DE/ DCO MULLANEY THOMAS P director 300 $19.56 $5,868.00 3,300 8.74% view
S 2005-03-30 2005-03-30 19:23:53.0 DUCOMMUN INC /DE/ DCO MULLANEY THOMAS P director 900 $19.55 $17,595.00 3,600 8.70% view
S 2004-11-30 2004-12-01 14:47:01.0 DUCOMMUN INC /DE/ DCO BERENATO JOSEPH C officer (COB and CEO) 1,000 $24.40 $24,400.00 12,250 15.25% view
S 2004-11-23 2004-11-23 19:07:57.0 DUCOMMUN INC /DE/ DCO WILLIAMS SAMUEL D officer (VP & Controller) 300 $23.72 $7,116.00 583 7.29% view
S 2004-11-23 2004-11-23 19:07:57.0 DUCOMMUN INC /DE/ DCO WILLIAMS SAMUEL D officer (VP & Controller) 1,000 $23.69 $23,690.00 883 7.18% view
S 2004-11-23 2004-11-23 19:07:57.0 DUCOMMUN INC /DE/ DCO WILLIAMS SAMUEL D officer (VP & Controller) 500 $23.67 $11,835.00 1,883 7.10% view
S 2004-11-23 2004-11-23 19:07:57.0 DUCOMMUN INC /DE/ DCO WILLIAMS SAMUEL D officer (VP & Controller) 500 $23.61 $11,805.00 2,383 6.86% view
S 2004-11-22 2004-11-23 19:07:57.0 DUCOMMUN INC /DE/ DCO WILLIAMS SAMUEL D officer (VP & Controller) 100 $24.75 $2,475.00 2,883 11.15% view
S 2004-11-22 2004-11-23 19:07:57.0 DUCOMMUN INC /DE/ DCO WILLIAMS SAMUEL D officer (VP & Controller) 800 $24.21 $19,368.00 2,983 9.17% view
S 2004-11-22 2004-11-23 19:07:57.0 DUCOMMUN INC /DE/ DCO WILLIAMS SAMUEL D officer (VP & Controller) 100 $24.20 $2,420.00 3,783 9.13% view
S 2004-11-22 2004-11-23 19:07:57.0 DUCOMMUN INC /DE/ DCO WILLIAMS SAMUEL D officer (VP & Controller) 200 $24.19 $4,838.00 3,883 9.09% view
S 2004-11-22 2004-11-23 19:07:57.0 DUCOMMUN INC /DE/ DCO WILLIAMS SAMUEL D officer (VP & Controller) 600 $24.17 $14,502.00 4,083 9.02% view
S 2004-11-22 2004-11-23 19:07:57.0 DUCOMMUN INC /DE/ DCO WILLIAMS SAMUEL D officer (VP & Controller) 600 $24.16 $14,496.00 4,683 8.98% view
S 2004-11-22 2004-11-23 19:07:57.0 DUCOMMUN INC /DE/ DCO WILLIAMS SAMUEL D officer (VP & Controller) 1,200 $24.15 $28,980.00 5,283 8.94% view
S 2004-11-22 2004-11-23 19:07:57.0 DUCOMMUN INC /DE/ DCO WILLIAMS SAMUEL D officer (VP & Controller) 100 $24.12 $2,412.00 6,483 8.83% view
S 2004-11-22 2004-11-23 19:07:57.0 DUCOMMUN INC /DE/ DCO WILLIAMS SAMUEL D officer (VP & Controller) 200 $24.11 $4,822.00 6,583 8.79% view
S 2004-11-22 2004-11-23 19:07:57.0 DUCOMMUN INC /DE/ DCO WILLIAMS SAMUEL D officer (VP & Controller) 300 $24.10 $7,230.00 6,783 8.76% view
S 2004-11-22 2004-11-23 19:07:57.0 DUCOMMUN INC /DE/ DCO WILLIAMS SAMUEL D officer (VP & Controller) 100 $24.01 $2,401.00 7,083 8.41% view
S 2004-11-22 2004-11-23 19:07:57.0 DUCOMMUN INC /DE/ DCO WILLIAMS SAMUEL D officer (VP & Controller) 900 $24.00 $21,600.00 7,183 8.38% view
S 2004-11-18 2004-11-22 08:00:58.0 DUCOMMUN INC /DE/ DCO DUCOMMUN ROBERT C director 1,000 $24.00 $24,000.00 495,000 4.79% view
S 2004-11-18 2004-11-19 18:47:18.0 DUCOMMUN INC /DE/ DCO DUCOMMUN ROBERT C director 1,000 $24.00 $24,000.00 495,000 4.79% view
S 2004-11-16 2004-11-17 18:28:54.0 DUCOMMUN INC /DE/ DCO DUCOMMUN ROBERT C director 900 $23.75 $21,375.00 496,000 3.24% view
S 2004-11-12 2004-11-15 19:14:08.0 DUCOMMUN INC /DE/ DCO HEISER JAMES S officer (VP, CFO & Gen. Cnsl.) 203 $23.81 $4,833.43 6,819 4.58% view
S 2004-11-12 2004-11-15 19:14:08.0 DUCOMMUN INC /DE/ DCO HEISER JAMES S officer (VP, CFO & Gen. Cnsl.) 200 $23.78 $4,756.00 7,022 4.46% view
S 2004-11-12 2004-11-15 19:14:08.0 DUCOMMUN INC /DE/ DCO HEISER JAMES S officer (VP, CFO & Gen. Cnsl.) 1,700 $23.77 $40,409.00 7,222 4.42% view
S 2004-11-12 2004-11-15 19:12:06.0 DUCOMMUN INC /DE/ DCO DUCOMMUN ROBERT C director 1,200 $23.67 $28,401.60 498,150 4.01% view
S 2004-11-11 2004-11-15 19:12:06.0 DUCOMMUN INC /DE/ DCO DUCOMMUN ROBERT C director 1,650 $24.45 $40,350.80 499,350 7.09% view
* An * after P or S in the Buy/Sell column means the transaction was filed by the insider as open market, but it was marked as private transaction by insidercow's proprietary method
Enter Another Stock Symbol: